NCAR-RAP Real-Time Weather Data

Output produced by METARs form (23 January 2018  15:51 UTC)
found at http://weather.rap.ucar.edu/surface/
 
RJOC 231100Z 26018G28KT 9999 -SHSN FEW020 SCT035 BKN050 01/M10 Q1016
RJOC 231000Z 27018KT 9999 VCSH FEW030 SCT035 BKN050 01/M09 Q1016
RJOC 230900Z 27019KT 9999 -SHSN FEW030 BKN035 01/M09 Q1016
RJOC 230800Z 26018KT 9999 -SHSN FEW030 BKN035 01/M09 Q1015
RJOC 230700Z 27019KT 9999 -SHSN FEW030 BKN040 01/M08 Q1016
RJOC 230600Z 27021G31KT 9999 -SHSN FEW030 BKN040 01/M08 Q1015
RJOC 230500Z 27023KT 9999 FEW030 SCT040 BKN120 02/M08 Q1015
RJOC 230400Z 27024KT 9999 FEW030 BKN120 03/M07 Q1014
RJOC 230300Z 28034G45KT 9999 FEW030 BKN120 04/M07 Q1014
RJOC 230200Z 28028G43KT 9999 FEW030 SCT040 BKN100 05/M04 Q1013
RJOC 230100Z 28022KT 9999 FEW030 SCT040 05/M03 Q1013
RJOC 230000Z 27021G32KT 9999 FEW030 SCT040 06/M03 Q1012
RJOC 222300Z 27019G30KT 9999 FEW030 SCT040 06/M02 Q1011
RJOC 222200Z 27020KT 9999 FEW020 SCT030 06/M01 Q1010
RJOC 222130Z 28021KT 9999 FEW020 SCT040 06/00 Q1010
RJOC 222110Z 28022KT 9999 FEW020 SCT030 07/01 Q1009 RMK 2CU020 3CU030 A2982
RJOC 221100Z VRB02KT 9999 -SHRA FEW005 SCT020 BKN030 03/02 Q1012
RJOC 221000Z 16006KT 9999 FEW004 SCT030 BKN070 03/02 Q1012
RJOC 220900Z 22004KT 190V260 9999 FEW004 03/01 Q1012
RJOC 220800Z 16005KT 9999 FEW005 SCT035 04/02 Q1012
RJOC 220700Z 20004KT 150V250 9999 FEW005 SCT010 BKN040 04/02 Q1012
RJOC 220600Z VRB01KT 8000 -RA FEW005 SCT010 BKN020 03/02 Q1012
RJOC 220500Z 26003KT 6000 -RA BR FEW005 SCT009 BKN015 03/02 Q1012
RJOC 220400Z VRB01KT 6000 -RA FEW002 SCT009 BKN015 02/01 Q1012
RJOC 220300Z 22004KT 180V250 8000 -RA FEW002 SCT010 BKN015 02/01 Q1014
RJOC 220200Z 17009KT 9000 -RA FEW007 SCT010 BKN015 03/01 Q1015
RJOC 220100Z 16007KT 9999 -RA FEW007 SCT020 BKN040 04/01 Q1016
RJOC 220000Z 15005KT 120V200 9999 -RA FEW015 SCT030 BKN050 03/00 Q1017
RJOC 212300Z 17004KT 9999 FEW030 BKN080 03/01 Q1017
RJOC 212200Z 16008KT 9999 FEW030 SCT050 BKN080 03/M00 Q1016
RJOC 212130Z 16004KT 9999 FEW030 SCT050 BKN080 03/M00 Q1016
RJOC 212110Z 13005KT 9999 FEW030 SCT050 BKN070 03/M00 Q1016 RMK 1CU030 3SC050 6AC070 A3003
RJOC 211100Z 15003KT 9999 FEW035 BKN/// 04/00 Q1021
RJOC 211000Z 15004KT 9999 SCT035 BKN045 05/01 Q1022
RJOC 210900Z VRB01KT 9999 FEW030 BKN035 07/M02 Q1022
RJOC 210800Z 31007KT 9999 FEW040 SCT050 BKN/// 07/M01 Q1021
RJOC 210700Z 33011KT 9999 SCT040 08/M02 Q1021
RJOC 210600Z 31012KT 9999 FEW035 SCT040 09/M02 Q1021
RJOC 210500Z 31012KT 9999 FEW035 SCT040 09/M01 Q1020
RJOC 210400Z 31015KT 9999 FEW030 SCT035 09/M01 Q1020